createdAt,value
2023-02-06T00:00:50.711Z,39.30
2023-02-06T00:01:50.669Z,38.20
2023-02-06T00:02:50.610Z,34.00
2023-02-06T00:03:50.581Z,34.20
2023-02-06T00:04:50.539Z,34.00
2023-02-06T00:05:50.516Z,39.30
2023-02-06T00:06:50.436Z,36.20
2023-02-06T00:07:50.382Z,36.80
2023-02-06T00:08:50.336Z,33.70
2023-02-06T00:09:50.298Z,33.30
2023-02-06T00:10:50.254Z,38.80
2023-02-06T00:11:50.197Z,37.00
2023-02-06T00:12:50.169Z,39.30
2023-02-06T00:13:50.108Z,35.50
2023-02-06T00:14:50.058Z,37.00
2023-02-06T00:15:50.016Z,35.80
2023-02-06T00:16:49.964Z,37.30
2023-02-06T00:17:49.932Z,41.30
2023-02-06T00:18:49.898Z,32.80
2023-02-06T00:19:49.830Z,36.00
2023-02-06T00:20:49.784Z,38.30
2023-02-06T00:21:49.737Z,36.40
2023-02-06T00:22:49.693Z,36.10
2023-02-06T00:23:49.650Z,37.80
2023-02-06T00:24:49.610Z,32.40
2023-02-06T00:25:49.564Z,36.60
2023-02-06T00:26:49.509Z,30.40
2023-02-06T00:27:49.471Z,36.50
2023-02-06T00:28:49.422Z,34.90
2023-02-06T00:29:49.370Z,40.20
2023-02-06T00:30:49.430Z,35.10
2023-02-06T00:31:49.308Z,35.20
2023-02-06T00:32:49.305Z,37.60
2023-02-06T00:33:49.209Z,37.00
2023-02-06T00:34:49.141Z,36.90
2023-02-06T00:35:49.100Z,38.80
2023-02-06T00:36:49.065Z,32.50
2023-02-06T00:37:49.006Z,33.80
2023-02-06T00:38:48.968Z,31.80
2023-02-06T00:39:48.917Z,38.80
2023-02-06T00:40:48.868Z,34.10
2023-02-06T00:41:48.821Z,34.90
2023-02-06T00:42:48.786Z,33.90
2023-02-06T00:43:48.744Z,36.10
2023-02-06T00:44:48.681Z,32.60
2023-02-06T00:45:48.642Z,38.10
2023-02-06T00:46:48.616Z,34.20
2023-02-06T00:47:48.545Z,38.90
2023-02-06T00:48:48.503Z,36.80
2023-02-06T00:49:48.478Z,41.10
2023-02-06T00:50:48.410Z,35.70
2023-02-06T00:51:48.365Z,40.20
2023-02-06T00:52:48.312Z,35.80
2023-02-06T00:53:50.819Z,33.30
2023-02-06T00:54:48.223Z,33.40
2023-02-06T00:55:48.194Z,39.40
2023-02-06T00:56:48.142Z,35.00
2023-02-06T00:57:48.088Z,34.90
2023-02-06T00:58:48.037Z,34.90
2023-02-06T00:59:47.991Z,29.50
2023-02-06T01:00:47.946Z,32.20
2023-02-06T01:01:47.921Z,33.70
2023-02-06T01:02:47.888Z,34.90
2023-02-06T01:03:47.810Z,35.40
2023-02-06T01:04:47.760Z,34.90
2023-02-06T01:05:47.721Z,31.50
2023-02-06T01:06:47.669Z,35.10
2023-02-06T01:07:47.620Z,34.10
2023-02-06T01:08:47.577Z,33.40
2023-02-06T01:09:47.526Z,33.80
2023-02-06T01:10:47.474Z,33.40
2023-02-06T01:11:47.436Z,33.80
2023-02-06T01:12:47.389Z,30.70
2023-02-06T01:13:47.349Z,29.30
2023-02-06T01:14:47.292Z,32.10
2023-02-06T01:15:48.462Z,28.30
2023-02-06T01:16:47.195Z,32.50
2023-02-06T01:17:47.154Z,29.00
2023-02-06T01:18:47.124Z,39.10
2023-02-06T01:19:47.070Z,36.80
2023-02-06T01:20:47.045Z,33.60
2023-02-06T01:21:46.973Z,35.70
2023-02-06T01:22:46.920Z,34.80
2023-02-06T01:23:46.877Z,35.40
2023-02-06T01:24:46.826Z,38.10
2023-02-06T01:25:46.781Z,34.30
2023-02-06T01:26:46.743Z,40.60
2023-02-06T01:27:46.708Z,35.50
2023-02-06T01:28:46.643Z,34.90
2023-02-06T01:29:46.598Z,34.90
2023-02-06T01:30:46.593Z,31.20
2023-02-06T01:31:46.562Z,39.60
2023-02-06T01:32:46.465Z,32.70
2023-02-06T01:33:46.413Z,35.50
2023-02-06T01:34:46.361Z,36.70
2023-02-06T01:35:46.317Z,35.80
2023-02-06T01:36:46.268Z,33.60
2023-02-06T01:37:46.228Z,35.60
2023-02-06T01:38:46.202Z,35.30
2023-02-06T01:39:46.144Z,37.30
2023-02-06T01:40:46.083Z,32.20
2023-02-06T01:41:46.045Z,35.30
2023-02-06T01:42:46.008Z,32.80
2023-02-06T01:43:45.953Z,38.10
2023-02-06T01:44:45.911Z,33.20
2023-02-06T01:45:45.869Z,35.10
2023-02-06T01:46:45.832Z,33.50
2023-02-06T01:47:45.772Z,35.20
2023-02-06T01:48:45.713Z,41.10
2023-02-06T01:49:45.669Z,38.30
2023-02-06T01:50:45.630Z,30.10
2023-02-06T01:51:45.575Z,31.60
2023-02-06T01:52:45.525Z,36.20
2023-02-06T01:53:45.487Z,31.70
2023-02-06T01:54:45.436Z,32.40
2023-02-06T01:55:45.393Z,37.10
2023-02-06T01:56:45.352Z,37.20
2023-02-06T01:57:45.301Z,31.80
2023-02-06T01:58:45.251Z,35.40
2023-02-06T01:59:45.210Z,36.80
2023-02-06T02:00:45.215Z,37.70
2023-02-06T02:01:45.165Z,34.30
2023-02-06T02:02:45.094Z,34.40
2023-02-06T02:03:45.041Z,35.00
2023-02-06T02:04:44.972Z,33.00
2023-02-06T02:05:44.932Z,30.90
2023-02-06T02:06:44.879Z,33.70
2023-02-06T02:07:44.834Z,33.70
2023-02-06T02:08:44.796Z,33.10
2023-02-06T02:09:44.749Z,33.90
2023-02-06T02:10:44.699Z,39.10
2023-02-06T02:11:44.652Z,36.40
2023-02-06T02:12:44.613Z,31.00
2023-02-06T02:13:44.559Z,33.90
2023-02-06T02:14:44.510Z,35.40
2023-02-06T02:15:44.484Z,35.10
2023-02-06T02:16:44.423Z,41.20
2023-02-06T02:17:44.383Z,39.40
2023-02-06T02:18:44.326Z,31.70
2023-02-06T02:19:44.282Z,33.90
2023-02-06T02:20:44.237Z,28.10
2023-02-06T02:21:44.201Z,33.60
2023-02-06T02:22:44.140Z,31.40
2023-02-06T02:23:44.096Z,36.70
2023-02-06T02:24:44.060Z,36.30
2023-02-06T02:25:44.006Z,35.70
2023-02-06T02:26:43.969Z,34.30
2023-02-06T02:27:43.989Z,39.50
2023-02-06T02:28:43.869Z,32.10
2023-02-06T02:29:43.820Z,34.40
2023-02-06T02:30:43.839Z,34.50
2023-02-06T02:31:43.778Z,38.70
2023-02-06T02:32:43.696Z,40.20
2023-02-06T02:33:43.632Z,33.90
2023-02-06T02:34:43.587Z,38.30
2023-02-06T02:35:43.538Z,37.20
2023-02-06T02:36:43.490Z,35.40
2023-02-06T02:37:43.456Z,36.10
2023-02-06T02:38:43.412Z,37.30
2023-02-06T02:39:43.354Z,38.20
2023-02-06T02:40:43.306Z,38.60
2023-02-06T02:41:43.264Z,37.50
2023-02-06T02:42:43.224Z,38.60
2023-02-06T02:43:43.170Z,34.50
2023-02-06T02:44:43.132Z,38.80
2023-02-06T02:45:43.111Z,37.00
2023-02-06T02:46:43.036Z,39.40
2023-02-06T02:47:42.986Z,35.60
2023-02-06T02:48:42.928Z,35.30
2023-02-06T02:49:42.901Z,37.10
2023-02-06T02:50:42.837Z,36.20
2023-02-06T02:51:42.791Z,36.20
2023-02-06T02:52:42.746Z,38.90
2023-02-06T02:53:42.693Z,37.80
2023-02-06T02:54:42.648Z,36.50
2023-02-06T02:55:42.620Z,39.60
2023-02-06T02:56:42.650Z,38.80
2023-02-06T02:57:42.509Z,38.70
2023-02-06T02:58:42.465Z,39.20
2023-02-06T02:59:42.420Z,39.00
2023-02-06T03:00:42.407Z,36.60
2023-02-06T03:01:42.336Z,35.10
2023-02-06T03:02:42.278Z,38.00
2023-02-06T03:03:42.232Z,39.30
2023-02-06T03:04:42.197Z,38.80
2023-02-06T03:05:42.146Z,37.80
2023-02-06T03:06:42.087Z,36.80
2023-02-06T03:07:42.069Z,37.80
2023-02-06T03:08:41.995Z,42.30
2023-02-06T03:09:43.250Z,42.80
2023-02-06T03:10:41.918Z,39.00
2023-02-06T03:11:41.852Z,39.50
2023-02-06T03:12:41.815Z,44.20
2023-02-06T03:13:41.771Z,42.40
2023-02-06T03:14:41.720Z,39.20
2023-02-06T03:15:41.666Z,41.70
2023-02-06T03:16:41.711Z,44.90
2023-02-06T03:17:41.586Z,44.30
2023-02-06T03:18:41.534Z,39.90
2023-02-06T03:19:41.490Z,41.40
2023-02-06T03:20:41.436Z,44.20
2023-02-06T03:21:41.386Z,42.70
2023-02-06T03:22:41.348Z,37.90
2023-02-06T03:23:41.313Z,41.50
2023-02-06T03:24:41.262Z,42.40
2023-02-06T03:25:41.205Z,45.70
2023-02-06T03:26:41.158Z,43.60
2023-02-06T03:27:41.108Z,40.90
2023-02-06T03:28:41.064Z,43.80
2023-02-06T03:29:41.029Z,40.30
2023-02-06T03:30:41.008Z,43.80
2023-02-06T03:31:40.953Z,42.90
2023-02-06T03:32:40.877Z,38.80
2023-02-06T03:33:40.831Z,35.60
2023-02-06T03:34:40.786Z,39.20
2023-02-06T03:35:40.752Z,37.90
2023-02-06T03:36:40.694Z,42.10
2023-02-06T03:37:40.642Z,42.60
2023-02-06T03:38:40.607Z,43.90
2023-02-06T03:39:40.555Z,43.60
2023-02-06T03:40:40.509Z,47.40
2023-02-06T03:41:40.468Z,40.20
2023-02-06T03:42:40.416Z,49.30
2023-02-06T03:43:40.369Z,43.60
2023-02-06T03:44:40.336Z,41.60
2023-02-06T03:45:40.431Z,42.70
2023-02-06T03:46:40.236Z,42.30
2023-02-06T03:47:40.177Z,39.90
2023-02-06T03:48:40.155Z,38.20
2023-02-06T03:49:40.084Z,44.50
2023-02-06T03:50:40.060Z,38.30
2023-02-06T03:51:39.991Z,36.90
2023-02-06T03:52:39.947Z,39.60
2023-02-06T03:53:39.898Z,42.30
2023-02-06T03:54:39.854Z,39.00
2023-02-06T03:55:39.807Z,35.80
2023-02-06T03:56:39.775Z,37.10
2023-02-06T03:57:39.722Z,42.70
2023-02-06T03:58:39.669Z,38.60
2023-02-06T03:59:39.648Z,42.40
2023-02-06T04:00:39.582Z,39.00
2023-02-06T04:01:39.547Z,37.30
2023-02-06T04:02:39.538Z,34.20
2023-02-06T04:03:39.434Z,39.30
2023-02-06T04:04:39.393Z,41.00
2023-02-06T04:05:39.365Z,40.00
2023-02-06T04:06:39.301Z,42.60
2023-02-06T04:07:39.253Z,41.20
2023-02-06T04:08:39.206Z,39.30
2023-02-06T04:09:39.156Z,37.70
2023-02-06T04:10:39.120Z,43.70
2023-02-06T04:11:39.089Z,45.20
2023-02-06T04:12:39.018Z,38.30
2023-02-06T04:13:38.968Z,37.40
2023-02-06T04:14:38.930Z,38.50
2023-02-06T04:15:38.875Z,44.00
2023-02-06T04:16:38.888Z,40.30
2023-02-06T04:17:53.495Z,47.20
2023-02-06T04:18:38.738Z,46.30
2023-02-06T04:19:38.700Z,46.50
2023-02-06T04:20:38.655Z,40.90
2023-02-06T04:21:38.596Z,33.50
2023-02-06T04:22:38.553Z,37.50
2023-02-06T04:23:38.517Z,35.10
2023-02-06T04:24:38.458Z,40.00
2023-02-06T04:25:38.696Z,37.10
2023-02-06T04:26:38.363Z,39.10
2023-02-06T04:27:38.324Z,38.80
2023-02-06T04:28:38.270Z,35.80
2023-02-06T04:29:38.234Z,37.00
2023-02-06T04:30:38.204Z,40.70
2023-02-06T04:31:38.167Z,40.90
2023-02-06T04:32:38.082Z,33.00
2023-02-06T04:33:38.030Z,37.70
2023-02-06T04:34:37.994Z,40.50
2023-02-06T04:35:38.196Z,40.20
2023-02-06T04:36:37.892Z,35.40
2023-02-06T04:37:37.851Z,39.70
2023-02-06T04:38:37.802Z,37.90
2023-02-06T04:39:37.759Z,35.20
2023-02-06T04:40:37.714Z,36.80
2023-02-06T04:41:37.668Z,34.80
2023-02-06T04:42:37.617Z,35.90
2023-02-06T04:43:37.569Z,40.70
2023-02-06T04:44:37.519Z,40.50
2023-02-06T04:45:37.790Z,41.90
2023-02-06T04:46:37.427Z,40.00
2023-02-06T04:47:37.384Z,45.30
2023-02-06T04:48:37.336Z,47.60
2023-02-06T04:49:37.282Z,46.80
2023-02-06T04:50:37.236Z,36.40
2023-02-06T04:51:37.192Z,38.80
2023-02-06T04:52:37.142Z,37.60
2023-02-06T04:53:37.118Z,35.70
2023-02-06T04:54:37.060Z,40.80
2023-02-06T04:55:37.344Z,35.10
2023-02-06T04:56:36.956Z,39.30
2023-02-06T04:57:36.904Z,32.90
2023-02-06T04:58:36.876Z,31.70
2023-02-06T04:59:36.829Z,38.80
2023-02-06T05:00:38.725Z,38.20
2023-02-06T05:01:36.764Z,37.80
2023-02-06T05:02:36.714Z,34.70
2023-02-06T05:03:36.624Z,42.70
2023-02-06T05:04:36.575Z,38.90
2023-02-06T05:05:36.748Z,37.30
2023-02-06T05:06:36.480Z,40.30
2023-02-06T05:07:36.439Z,40.50
2023-02-06T05:08:36.404Z,35.90
2023-02-06T05:09:36.336Z,42.20
2023-02-06T05:10:36.292Z,41.80
2023-02-06T05:11:36.247Z,37.10
2023-02-06T05:12:36.196Z,42.10
2023-02-06T05:13:36.151Z,39.60
2023-02-06T05:14:36.114Z,42.30
2023-02-06T05:15:36.454Z,35.00
2023-02-06T05:16:45.434Z,40.50
2023-02-06T05:17:35.972Z,40.00
2023-02-06T05:18:35.918Z,42.30
2023-02-06T05:19:35.861Z,36.50
2023-02-06T05:20:35.826Z,40.10
2023-02-06T05:21:35.778Z,39.30
2023-02-06T05:22:35.720Z,41.00
2023-02-06T05:23:35.673Z,38.60
2023-02-06T05:24:35.633Z,39.20
2023-02-06T05:25:35.885Z,38.10
2023-02-06T05:26:35.535Z,39.10
2023-02-06T05:27:35.495Z,38.20
2023-02-06T05:28:35.444Z,44.60
2023-02-06T05:29:35.388Z,40.90
2023-02-06T05:30:35.432Z,39.00
2023-02-06T05:31:35.462Z,39.40
2023-02-06T05:32:35.250Z,46.40
2023-02-06T05:33:35.198Z,43.60
2023-02-06T05:34:35.156Z,41.20
2023-02-06T05:35:35.398Z,48.80
2023-02-06T05:36:35.061Z,45.60
2023-02-06T05:37:35.034Z,45.40
2023-02-06T05:38:34.973Z,40.60
2023-02-06T05:39:34.920Z,54.60
2023-02-06T05:40:34.875Z,44.80
2023-02-06T05:41:34.828Z,50.70
2023-02-06T05:42:34.786Z,49.00
2023-02-06T05:43:34.746Z,44.70
2023-02-06T05:44:34.689Z,43.70
2023-02-06T05:45:36.144Z,48.10
2023-02-06T05:46:34.616Z,42.30
2023-02-06T05:47:34.545Z,44.00
2023-02-06T05:48:34.503Z,43.50
2023-02-06T05:49:34.491Z,41.70
2023-02-06T05:50:34.414Z,41.50
2023-02-06T05:51:34.361Z,48.20
2023-02-06T05:52:34.342Z,41.20
2023-02-06T05:53:34.269Z,37.10
2023-02-06T05:54:34.225Z,41.10
2023-02-06T05:55:34.533Z,36.40
2023-02-06T05:56:34.132Z,35.90
2023-02-06T05:57:34.077Z,43.10
2023-02-06T05:58:34.040Z,41.60
2023-02-06T05:59:33.985Z,40.10
2023-02-06T06:00:33.941Z,39.80
2023-02-06T06:01:33.905Z,40.10
2023-02-06T06:02:33.859Z,37.40
2023-02-06T06:03:34.002Z,40.70
2023-02-06T06:04:33.790Z,42.80
2023-02-06T06:05:33.952Z,39.40
2023-02-06T06:06:33.662Z,36.90
2023-02-06T06:07:33.622Z,40.50
2023-02-06T06:08:33.569Z,39.60
2023-02-06T06:09:33.519Z,38.30
2023-02-06T06:10:33.478Z,41.50
2023-02-06T06:11:33.479Z,36.70
2023-02-06T06:12:33.382Z,37.50
2023-02-06T06:13:33.351Z,35.20
2023-02-06T06:14:33.291Z,36.70
2023-02-06T06:15:33.254Z,39.90
2023-02-06T06:16:33.195Z,42.90
2023-02-06T06:17:33.146Z,40.30
2023-02-06T06:18:33.108Z,42.90
2023-02-06T06:19:33.076Z,42.90
2023-02-06T06:20:33.004Z,44.40
2023-02-06T06:21:32.962Z,44.70
2023-02-06T06:22:32.915Z,41.40
2023-02-06T06:23:32.866Z,43.70
2023-02-06T06:24:32.872Z,43.50
2023-02-06T06:25:32.782Z,41.70
2023-02-06T06:26:32.727Z,44.80
2023-02-06T06:27:32.679Z,44.90
2023-02-06T06:28:32.638Z,44.60
2023-02-06T06:29:32.586Z,40.60
2023-02-06T06:30:33.785Z,40.40
2023-02-06T06:31:32.553Z,44.80
2023-02-06T06:32:32.456Z,46.70
2023-02-06T06:33:32.397Z,39.50
2023-02-06T06:34:32.355Z,35.90
2023-02-06T06:35:32.315Z,46.60
2023-02-06T06:36:32.274Z,37.30
2023-02-06T06:37:32.209Z,38.80
2023-02-06T06:38:32.169Z,39.60
2023-02-06T06:39:32.137Z,39.80
2023-02-06T06:40:32.226Z,36.80
2023-02-06T06:41:32.027Z,43.50
2023-02-06T06:42:32.002Z,42.00
2023-02-06T06:43:31.929Z,39.80
2023-02-06T06:44:31.901Z,38.20
2023-02-06T06:45:31.938Z,37.40
2023-02-06T06:46:31.788Z,38.80
2023-02-06T06:47:31.741Z,43.30
2023-02-06T06:48:31.700Z,39.20
2023-02-06T06:49:31.648Z,41.80
2023-02-06T06:50:31.618Z,44.00
2023-02-06T06:51:31.556Z,43.20
2023-02-06T06:52:31.519Z,42.60
2023-02-06T06:53:31.466Z,57.10
2023-02-06T06:54:31.420Z,41.70
2023-02-06T06:55:31.390Z,45.00
2023-02-06T06:56:31.330Z,49.50
2023-02-06T06:57:31.278Z,46.30
2023-02-06T06:58:31.230Z,52.20
2023-02-06T06:59:31.202Z,49.20
2023-02-06T07:00:31.140Z,53.00
2023-02-06T07:01:31.104Z,49.60
2023-02-06T07:02:31.049Z,55.40
2023-02-06T07:03:30.996Z,49.40
2023-02-06T07:04:30.979Z,52.20
2023-02-06T07:05:30.915Z,49.40
2023-02-06T07:06:30.872Z,52.50
2023-02-06T07:07:30.859Z,51.40
2023-02-06T07:08:30.776Z,53.40
2023-02-06T07:09:30.742Z,56.20
2023-02-06T07:10:30.745Z,53.00
2023-02-06T07:11:30.637Z,53.80
2023-02-06T07:12:30.586Z,55.20
2023-02-06T07:13:30.560Z,60.90
2023-02-06T07:14:30.491Z,57.00
2023-02-06T07:15:30.449Z,60.10
2023-02-06T07:16:30.445Z,66.30
2023-02-06T07:17:30.366Z,62.40
2023-02-06T07:18:30.309Z,62.10
2023-02-06T07:19:30.264Z,54.30
2023-02-06T07:20:30.207Z,70.10
2023-02-06T07:21:30.166Z,62.20
2023-02-06T07:22:30.119Z,60.80
2023-02-06T07:23:30.092Z,67.30
2023-02-06T07:24:30.017Z,54.80
2023-02-06T07:25:30.083Z,57.80
2023-02-06T07:26:29.931Z,55.00
2023-02-06T07:27:29.890Z,72.70
2023-02-06T07:28:29.885Z,56.40
2023-02-06T07:29:29.838Z,62.30
2023-02-06T07:30:29.757Z,58.70
2023-02-06T07:31:29.730Z,61.00
2023-02-06T07:32:29.654Z,55.70
2023-02-06T07:33:29.612Z,67.20
2023-02-06T07:34:29.576Z,49.90
2023-02-06T07:35:29.519Z,59.60
2023-02-06T07:36:29.466Z,63.80
2023-02-06T07:37:29.424Z,67.70
2023-02-06T07:38:29.382Z,70.30
2023-02-06T07:39:29.340Z,62.40
2023-02-06T07:40:39.646Z,57.10
2023-02-06T07:41:29.238Z,74.20
2023-02-06T07:42:29.192Z,62.00
2023-02-06T07:43:29.148Z,72.80
2023-02-06T07:44:29.100Z,73.30
2023-02-06T07:45:29.065Z,77.30
2023-02-06T07:46:29.007Z,68.10
2023-02-06T07:47:28.966Z,72.00
2023-02-06T07:48:28.917Z,66.20
2023-02-06T07:49:28.890Z,61.90
2023-02-06T07:50:28.824Z,68.10
2023-02-06T07:51:28.789Z,93.30
2023-02-06T07:52:28.730Z,57.80
2023-02-06T07:53:28.704Z,58.30
2023-02-06T07:54:28.638Z,97.20
2023-02-06T07:55:28.601Z,66.00
2023-02-06T07:56:28.546Z,67.70
2023-02-06T07:57:28.516Z,64.30
2023-02-06T07:58:28.456Z,80.40
2023-02-06T07:59:28.426Z,65.60
2023-02-06T08:00:28.367Z,62.90
2023-02-06T08:01:28.345Z,59.90
2023-02-06T08:02:28.270Z,60.50
2023-02-06T08:03:28.234Z,57.10
2023-02-06T08:04:28.252Z,62.80
2023-02-06T08:05:28.152Z,53.10
2023-02-06T08:06:28.092Z,63.50
2023-02-06T08:07:28.047Z,61.00
2023-02-06T08:08:28.008Z,57.40
2023-02-06T08:09:27.966Z,72.20
2023-02-06T08:10:27.929Z,56.60
2023-02-06T08:11:27.896Z,65.80
2023-02-06T08:12:27.819Z,55.00
2023-02-06T08:13:27.775Z,51.70
2023-02-06T08:14:27.735Z,53.40
2023-02-06T08:15:27.684Z,61.20
2023-02-06T08:16:27.711Z,59.70
2023-02-06T08:17:27.609Z,53.10
2023-02-06T08:18:27.554Z,51.10
2023-02-06T08:19:27.528Z,50.00
2023-02-06T08:20:27.456Z,53.00
2023-02-06T08:21:27.433Z,55.80
2023-02-06T08:22:27.363Z,54.70
2023-02-06T08:23:27.348Z,53.20
2023-02-06T08:24:27.272Z,53.20
2023-02-06T08:25:27.250Z,53.30
2023-02-06T08:26:27.182Z,52.10
2023-02-06T08:27:27.149Z,50.40
2023-02-06T08:28:27.094Z,58.20
2023-02-06T08:29:27.067Z,56.30
2023-02-06T08:30:27.023Z,56.20
2023-02-06T08:31:27.063Z,54.90
2023-02-06T08:32:26.921Z,59.80
2023-02-06T08:33:26.870Z,57.40
2023-02-06T08:34:26.831Z,54.30
2023-02-06T08:35:26.790Z,53.40
2023-02-06T08:36:26.748Z,51.50
2023-02-06T08:37:26.689Z,55.60
2023-02-06T08:38:26.644Z,61.70
2023-02-06T08:39:26.614Z,64.00
2023-02-06T08:40:26.565Z,60.70
2023-02-06T08:41:26.533Z,59.30
2023-02-06T08:42:26.456Z,57.10
2023-02-06T08:43:26.424Z,57.10
2023-02-06T08:44:26.375Z,58.00
2023-02-06T08:45:26.330Z,48.90
2023-02-06T08:46:26.298Z,47.50
2023-02-06T08:47:26.251Z,59.60
2023-02-06T08:48:26.192Z,53.70
2023-02-06T08:49:26.144Z,56.10
2023-02-06T08:50:26.102Z,52.80
2023-02-06T08:51:26.064Z,48.30
2023-02-06T08:52:26.006Z,49.40
2023-02-06T08:53:25.979Z,47.50
2023-02-06T08:54:25.922Z,47.80
2023-02-06T08:55:25.884Z,45.40
2023-02-06T08:56:25.833Z,50.40
2023-02-06T08:57:25.789Z,47.00
2023-02-06T08:58:25.746Z,44.10
2023-02-06T08:59:25.728Z,45.20
2023-02-06T09:00:25.659Z,46.30
2023-02-06T09:01:25.638Z,45.20
2023-02-06T09:02:25.595Z,42.60
2023-02-06T09:03:25.534Z,40.30
2023-02-06T09:04:25.485Z,39.00
2023-02-06T09:05:25.447Z,37.40
2023-02-06T09:06:25.390Z,37.40
2023-02-06T09:07:25.346Z,38.30
2023-02-06T09:08:25.301Z,38.50
2023-02-06T09:09:25.273Z,36.00
2023-02-06T09:10:27.681Z,39.10
2023-02-06T09:11:25.172Z,37.50
2023-02-06T09:12:25.130Z,36.10
2023-02-06T09:13:25.087Z,34.80
2023-02-06T09:14:25.034Z,35.60
2023-02-06T09:15:24.994Z,36.90
2023-02-06T09:16:25.000Z,35.10
2023-02-06T09:17:24.922Z,37.50
2023-02-06T09:18:24.863Z,34.10
2023-02-06T09:19:24.819Z,36.70
2023-02-06T09:20:24.766Z,35.40
2023-02-06T09:21:24.746Z,38.70
2023-02-06T09:22:24.672Z,34.20
2023-02-06T09:23:24.642Z,36.40
2023-02-06T09:24:24.586Z,36.50
2023-02-06T09:25:24.550Z,37.40
2023-02-06T09:26:24.508Z,38.50
2023-02-06T09:27:24.472Z,43.60
2023-02-06T09:28:24.515Z,37.80
2023-02-06T09:29:24.374Z,42.20
2023-02-06T09:30:24.404Z,39.70
2023-02-06T09:31:24.310Z,39.70
2023-02-06T09:32:24.245Z,35.00
2023-02-06T09:33:24.188Z,36.00
2023-02-06T09:34:24.144Z,39.10
2023-02-06T09:35:24.108Z,37.50
2023-02-06T09:36:24.062Z,38.40
2023-02-06T09:37:24.020Z,42.80
2023-02-06T09:38:23.980Z,44.50
2023-02-06T09:39:23.933Z,38.60
2023-02-06T09:40:23.884Z,40.00
2023-02-06T09:41:23.848Z,41.70
2023-02-06T09:42:23.822Z,42.50
2023-02-06T09:43:23.759Z,44.10
2023-02-06T09:44:23.729Z,45.60
2023-02-06T09:45:23.661Z,46.10
2023-02-06T09:46:23.680Z,41.00
2023-02-06T09:47:23.599Z,46.70
2023-02-06T09:48:23.538Z,41.90
2023-02-06T09:49:23.524Z,45.40
2023-02-06T09:50:23.451Z,43.70
2023-02-06T09:51:23.407Z,45.00
2023-02-06T09:52:23.416Z,44.40
2023-02-06T09:53:23.322Z,45.60
2023-02-06T09:54:23.280Z,40.70
2023-02-06T09:55:23.244Z,39.80
2023-02-06T09:56:23.183Z,37.00
2023-02-06T09:57:23.153Z,39.50
2023-02-06T09:58:23.103Z,39.80
2023-02-06T09:59:23.070Z,38.40
2023-02-06T10:00:23.017Z,39.00
2023-02-06T10:01:23.037Z,40.50
2023-02-06T10:02:22.927Z,39.70
2023-02-06T10:03:22.883Z,37.30
2023-02-06T10:04:22.849Z,42.70
2023-02-06T10:05:22.802Z,37.40
2023-02-06T10:06:22.768Z,39.60
2023-02-06T10:07:22.727Z,39.80
2023-02-06T10:08:22.734Z,34.40
2023-02-06T10:09:22.630Z,39.70
2023-02-06T10:10:22.585Z,37.50
2023-02-06T10:11:22.539Z,37.90
2023-02-06T10:12:22.510Z,34.70
2023-02-06T10:13:22.465Z,32.90
2023-02-06T10:14:22.437Z,36.80
2023-02-06T10:15:22.372Z,35.70
2023-02-06T10:16:22.341Z,34.30
2023-02-06T10:17:22.287Z,30.90
2023-02-06T10:18:22.253Z,33.70
2023-02-06T10:19:22.198Z,36.80
2023-02-06T10:20:22.169Z,30.50
2023-02-06T10:21:22.135Z,31.40
2023-02-06T10:22:22.151Z,34.40
2023-02-06T10:23:22.042Z,29.30
2023-02-06T10:24:21.988Z,29.80
2023-02-06T10:25:21.944Z,32.10
2023-02-06T10:26:21.902Z,27.60
2023-02-06T10:27:21.873Z,28.30
2023-02-06T10:28:21.940Z,27.70
2023-02-06T10:29:21.777Z,31.10
2023-02-06T10:30:21.740Z,26.10
2023-02-06T10:31:21.822Z,26.80
2023-02-06T10:32:21.686Z,24.70
2023-02-06T10:33:25.554Z,27.40
2023-02-06T10:34:21.577Z,26.70
2023-02-06T10:35:21.536Z,29.30
2023-02-06T10:36:21.487Z,28.80
2023-02-06T10:37:21.462Z,26.80
2023-02-06T10:38:21.399Z,27.80
2023-02-06T10:39:21.380Z,25.70
2023-02-06T10:40:21.315Z,23.00
2023-02-06T10:41:21.288Z,21.00
2023-02-06T10:42:22.818Z,22.20
2023-02-06T10:43:21.211Z,22.50
2023-02-06T10:44:21.158Z,21.80
2023-02-06T10:45:21.155Z,20.20
2023-02-06T10:46:21.121Z,20.70
2023-02-06T10:47:21.044Z,24.60
2023-02-06T10:48:20.996Z,21.50
2023-02-06T10:49:20.967Z,24.30
2023-02-06T10:50:20.916Z,23.50
2023-02-06T10:51:20.895Z,23.50
2023-02-06T10:52:20.829Z,20.60
2023-02-06T10:53:20.803Z,19.90
2023-02-06T10:54:20.748Z,18.20
2023-02-06T10:55:20.714Z,19.00
2023-02-06T10:56:20.664Z,20.60
2023-02-06T10:57:20.661Z,20.60
2023-02-06T10:58:20.587Z,25.40
2023-02-06T10:59:20.552Z,24.20
2023-02-06T11:00:20.504Z,23.40
2023-02-06T11:01:26.480Z,23.80
2023-02-06T11:02:20.498Z,23.00
2023-02-06T11:03:20.384Z,22.70
2023-02-06T11:04:20.344Z,24.30
2023-02-06T11:05:20.308Z,28.40
2023-02-06T11:06:20.269Z,25.40
2023-02-06T11:07:20.321Z,24.60
2023-02-06T11:08:20.183Z,26.50
2023-02-06T11:09:20.138Z,21.60
2023-02-06T11:10:20.122Z,26.00
2023-02-06T11:11:20.049Z,24.80
2023-02-06T11:12:20.018Z,27.00
2023-02-06T11:13:19.999Z,24.20
2023-02-06T11:14:19.929Z,25.50
2023-02-06T11:15:19.898Z,25.40
2023-02-06T11:16:19.936Z,23.80
2023-02-06T11:17:29.133Z,25.30
2023-02-06T11:18:19.773Z,24.50
2023-02-06T11:19:19.721Z,25.00
2023-02-06T11:20:19.684Z,19.30
2023-02-06T11:21:19.640Z,20.70
2023-02-06T11:22:19.601Z,23.40
2023-02-06T11:23:19.559Z,21.00
2023-02-06T11:24:19.535Z,21.80
2023-02-06T11:25:19.476Z,21.40
2023-02-06T11:26:19.440Z,20.50
2023-02-06T11:27:19.398Z,24.30
2023-02-06T11:28:19.398Z,21.40
2023-02-06T11:29:19.311Z,22.90
2023-02-06T11:30:19.282Z,24.30
2023-02-06T11:31:19.274Z,22.30
2023-02-06T11:32:19.192Z,25.90
2023-02-06T11:33:19.143Z,24.40
2023-02-06T11:34:19.114Z,21.90
2023-02-06T11:35:19.062Z,21.90
2023-02-06T11:36:19.035Z,23.90
2023-02-06T11:37:18.983Z,23.40
2023-02-06T11:38:18.938Z,24.10
2023-02-06T11:39:18.932Z,27.60
2023-02-06T11:40:18.893Z,28.80
2023-02-06T11:41:18.824Z,25.00
2023-02-06T11:42:18.786Z,24.90
2023-02-06T11:43:18.735Z,26.40
2023-02-06T11:44:18.693Z,26.00
2023-02-06T11:45:18.648Z,24.80
2023-02-06T11:46:18.717Z,25.60
2023-02-06T11:47:18.574Z,24.10
2023-02-06T11:48:18.528Z,24.80
2023-02-06T11:49:18.481Z,24.30
2023-02-06T11:50:18.441Z,24.80
2023-02-06T11:51:18.397Z,26.50
2023-02-06T11:52:18.368Z,26.00
2023-02-06T11:53:18.317Z,24.50
2023-02-06T11:54:18.292Z,23.60
2023-02-06T11:55:18.236Z,26.20
2023-02-06T11:56:18.217Z,23.40
2023-02-06T11:57:18.148Z,21.60
2023-02-06T11:58:18.128Z,20.80
2023-02-06T11:59:18.067Z,21.20
2023-02-06T12:00:18.030Z,21.50
2023-02-06T12:01:17.987Z,27.10
2023-02-06T12:02:18.014Z,21.00
2023-02-06T12:03:18.034Z,22.70
2023-02-06T12:04:17.887Z,27.80
2023-02-06T12:05:17.824Z,24.20
2023-02-06T12:06:17.785Z,25.30
2023-02-06T12:07:17.745Z,25.00
2023-02-06T12:08:17.717Z,21.60
2023-02-06T12:09:17.663Z,21.20
2023-02-06T12:10:17.654Z,20.90
2023-02-06T12:11:17.595Z,20.80
2023-02-06T12:12:17.543Z,19.70
2023-02-06T12:13:17.502Z,26.20
2023-02-06T12:14:19.224Z,20.90
2023-02-06T12:15:45.983Z,23.10
2023-02-06T12:16:17.424Z,23.90
2023-02-06T12:17:17.343Z,22.20
2023-02-06T12:18:17.309Z,25.40
2023-02-06T12:19:17.258Z,23.70
2023-02-06T12:20:17.232Z,24.90
2023-02-06T12:21:17.184Z,27.10
2023-02-06T12:22:17.147Z,27.00
2023-02-06T12:23:17.111Z,24.50
2023-02-06T12:24:17.061Z,28.30
2023-02-06T12:25:17.014Z,22.40
2023-02-06T12:26:16.986Z,21.90
2023-02-06T12:27:16.933Z,23.60
2023-02-06T12:28:16.968Z,26.50
2023-02-06T12:29:16.853Z,25.90
2023-02-06T12:30:16.817Z,25.10
2023-02-06T12:31:16.868Z,25.30
2023-02-06T12:32:16.828Z,24.30
2023-02-06T12:33:16.680Z,21.10
2023-02-06T12:34:16.644Z,22.40
2023-02-06T12:35:16.597Z,21.60
2023-02-06T12:36:16.558Z,24.70
2023-02-06T12:37:16.532Z,25.50
2023-02-06T12:38:16.486Z,24.90
2023-02-06T12:39:17.674Z,24.20
2023-02-06T12:40:16.390Z,23.10
2023-02-06T12:41:16.357Z,24.10
2023-02-06T12:42:16.309Z,26.00
2023-02-06T12:43:16.280Z,25.90
2023-02-06T12:44:16.228Z,28.20
2023-02-06T12:45:16.176Z,24.10
2023-02-06T12:46:16.330Z,28.80
2023-02-06T12:47:16.092Z,27.90
2023-02-06T12:48:16.080Z,30.40
2023-02-06T12:49:16.025Z,27.50
2023-02-06T12:50:16.007Z,31.00
2023-02-06T12:51:15.937Z,26.30
2023-02-06T12:52:15.887Z,28.20